Time;durP1;ratioP1;P1;durP2;ratioP2;P2;SDS_P1;SDS_P2;PMS_P1;PMS_P2;Temp;Humidity;BMP_temperature;BMP_pressure;BME280_temperature;BME280_humidity;BME280_pressure;Samples;Min_cycle;Max_cycle;Signal;HPM_P1;HPM_P2
2022/06/12 00:00:18;;;;;;;12.20;3.77;;;;;;;;;;5111037;28;20232;-76
2022/06/12 00:02:46;;;;;;;19.43;4.23;;;;;;;;;;5123489;28;20229;-76
2022/06/12 00:05:13;;;;;;;13.10;3.97;;;;;;;;;;5128841;27;20288;-76
2022/06/12 00:07:41;;;;;;;17.70;4.10;;;;;;;;;;5110620;28;20225;-75
2022/06/12 00:10:08;;;;;;;24.23;4.40;;;;;;;;;;5111049;28;20201;-75
2022/06/12 00:12:37;;;;;;;20.77;4.63;;;;;;;;;;5113300;28;20208;-76
2022/06/12 00:15:05;;;;;;;21.93;4.30;;;;;;;;;;5110279;28;20284;-76
2022/06/12 00:17:33;;;;;;;21.63;5.03;;;;;;;;;;5110632;28;20716;-75
2022/06/12 00:20:00;;;;;;;16.57;4.37;;;;;;;;;;5124985;28;20250;-75
2022/06/12 00:22:27;;;;;;;24.63;4.93;;;;;;;;;;5131009;27;20280;-75
2022/06/12 00:24:54;;;;;;;20.90;4.37;;;;;;;;;;5131354;27;20284;-76
2022/06/12 00:27:22;;;;;;;24.10;4.87;;;;;;;;;;5131013;27;20311;-75
2022/06/12 00:29:51;;;;;;;21.17;4.73;;;;;;;;;;5131356;27;20197;-75
2022/06/12 00:32:19;;;;;;;22.20;5.33;;;;;;;;;;5111805;27;20233;-76
2022/06/12 00:34:48;;;;;;;20.93;5.30;;;;;;;;;;5114914;28;20244;-75
2022/06/12 00:37:17;;;;;;;15.80;4.70;;;;;;;;;;5114365;28;20285;-76
2022/06/12 00:39:45;;;;;;;21.53;4.80;;;;;;;;;;5114553;28;20391;-76
2022/06/12 00:42:22;;;;;;;19.43;4.20;;;;;;;;;;5114370;28;20197;-75
2022/06/12 00:44:51;;;;;;;18.90;4.90;;;;;;;;;;5114539;28;20261;-75
2022/06/12 00:47:19;;;;;;;22.23;4.90;;;;;;;;;;5114895;27;20764;-75
2022/06/12 00:49:47;;;;;;;20.73;4.83;;;;;;;;;;5123184;27;20281;-75
2022/06/12 00:52:16;;;;;;;21.63;5.50;;;;;;;;;;5120436;27;20231;-75
2022/06/12 00:54:45;;;;;;;19.20;4.93;;;;;;;;;;5114434;27;20197;-75
2022/06/12 00:57:12;;;;;;;19.87;5.50;;;;;;;;;;5114315;28;20281;-75
2022/06/12 00:59:42;;;;;;;23.20;4.93;;;;;;;;;;5121457;27;20202;-75
2022/06/12 01:02:12;;;;;;;16.07;4.50;;;;;;;;;;5114212;28;20883;-75
2022/06/12 01:07:26;;;;;;;19.83;5.30;;;;;;;;;;5093689;28;20224;-75
2022/06/12 01:09:55;;;;;;;21.97;5.27;;;;;;;;;;5093566;28;20206;-75
2022/06/12 01:12:24;;;;;;;21.70;4.73;;;;;;;;;;5100894;27;20200;-75
2022/06/12 01:14:53;;;;;;;19.90;4.97;;;;;;;;;;5128222;27;20281;-75
2022/06/12 01:17:23;;;;;;;16.67;5.07;;;;;;;;;;5113546;28;20312;-76
2022/06/12 01:19:53;;;;;;;20.47;4.70;;;;;;;;;;5119250;27;20275;-75
2022/06/12 01:22:40;;;;;;;22.53;4.97;;;;;;;;;;5134178;27;20660;-75
2022/06/12 01:25:19;;;;;;;21.23;4.80;;;;;;;;;;5122293;27;20280;-76
2022/06/12 01:28:01;;;;;;;25.00;5.00;;;;;;;;;;5130346;27;20311;-75
2022/06/12 01:30:33;;;;;;;21.03;5.10;;;;;;;;;;5110786;27;20246;-75
2022/06/12 01:33:03;;;;;;;16.27;4.73;;;;;;;;;;5133510;27;20687;-76
2022/06/12 01:35:35;;;;;;;16.43;4.13;;;;;;;;;;5122341;27;20665;-75
2022/06/12 01:38:06;;;;;;;20.20;4.67;;;;;;;;;;5113283;28;20280;-75
2022/06/12 01:40:36;;;;;;;19.27;4.50;;;;;;;;;;5113589;28;20251;-75
2022/06/12 01:43:07;;;;;;;22.77;5.20;;;;;;;;;;5112137;28;20221;-75
2022/06/12 01:45:39;;;;;;;18.17;5.00;;;;;;;;;;5113151;28;20309;-76
2022/06/12 01:48:12;;;;;;;21.83;4.97;;;;;;;;;;5112955;27;20264;-75
2022/06/12 01:50:42;;;;;;;19.23;4.60;;;;;;;;;;5113399;28;20280;-75
2022/06/12 01:53:12;;;;;;;20.30;5.83;;;;;;;;;;5112762;27;20273;-75
2022/06/12 01:55:45;;;;;;;24.47;5.23;;;;;;;;;;5113122;28;20205;-75
2022/06/12 01:58:14;;;;;;;22.83;5.80;;;;;;;;;;5122053;27;20204;-75
2022/06/12 02:00:47;;;;;;;20.87;5.10;;;;;;;;;;5133451;27;20292;-76
2022/06/12 02:03:22;;;;;;;16.87;4.70;;;;;;;;;;5132987;27;20289;-75
2022/06/12 02:05:53;;;;;;;23.83;5.63;;;;;;;;;;5126846;27;20212;-75
2022/06/12 02:08:22;;;;;;;20.53;5.83;;;;;;;;;;5112832;28;20697;-75
2022/06/12 02:10:51;;;;;;;25.30;5.77;;;;;;;;;;5112827;28;20296;-75
2022/06/12 02:13:21;;;;;;;24.77;5.63;;;;;;;;;;5120973;27;20248;-75
2022/06/12 02:15:53;;;;;;;20.13;5.17;;;;;;;;;;5132905;27;20291;-75
2022/06/12 02:18:24;;;;;;;27.93;6.37;;;;;;;;;;5132855;27;20287;-75
2022/06/12 02:20:54;;;;;;;23.93;6.13;;;;;;;;;;5133164;27;20199;-75
2022/06/12 02:23:24;;;;;;;26.90;6.33;;;;;;;;;;5132404;27;20888;-76
2022/06/12 02:25:52;;;;;;;23.50;6.50;;;;;;;;;;5133326;27;20228;-75
2022/06/12 02:28:21;;;;;;;22.03;6.30;;;;;;;;;;5132590;27;20322;-75
2022/06/12 02:30:50;;;;;;;21.33;6.03;;;;;;;;;;5132773;27;20254;-75
2022/06/12 02:33:21;;;;;;;23.50;6.07;;;;;;;;;;5131265;27;20242;-75
2022/06/12 02:35:50;;;;;;;19.80;5.67;;;;;;;;;;5111592;28;20229;-75
2022/06/12 02:38:20;;;;;;;23.37;5.13;;;;;;;;;;5110956;28;20624;-76
2022/06/12 02:40:50;;;;;;;22.00;5.43;;;;;;;;;;5130182;27;20284;-75
2022/06/12 02:43:20;;;;;;;20.60;6.07;;;;;;;;;;5132751;27;20239;-75
2022/06/12 02:45:50;;;;;;;15.57;5.63;;;;;;;;;;5132197;27;20256;-75
2022/06/12 02:48:19;;;;;;;21.30;5.30;;;;;;;;;;5132892;27;20311;-75
2022/06/12 02:50:53;;;;;;;21.47;5.47;;;;;;;;;;5130832;27;20207;-75
2022/06/12 02:53:21;;;;;;;26.40;6.33;;;;;;;;;;5111330;28;20249;-75
2022/06/12 02:55:54;;;;;;;19.97;6.37;;;;;;;;;;5115456;27;20288;-75
2022/06/12 02:58:26;;;;;;;23.03;6.20;;;;;;;;;;5127550;27;20204;-75
2022/06/12 03:00:57;;;;;;;26.60;6.30;;;;;;;;;;5095280;28;20222;-75
2022/06/12 03:03:32;;;;;;;24.80;6.40;;;;;;;;;;5091152;28;20289;-75
2022/06/12 03:06:00;;;;;;;25.70;6.80;;;;;;;;;;5099083;28;20219;-75
2022/06/12 03:08:30;;;;;;;26.67;6.40;;;;;;;;;;5111259;27;20245;-75
2022/06/12 03:11:00;;;;;;;33.17;7.37;;;;;;;;;;5112820;27;20203;-75
2022/06/12 03:13:28;;;;;;;26.33;6.83;;;;;;;;;;5114040;27;20292;-75
2022/06/12 03:15:58;;;;;;;26.20;6.87;;;;;;;;;;5117401;27;20216;-75
2022/06/12 03:18:28;;;;;;;30.07;7.30;;;;;;;;;;5121057;27;20212;-75
2022/06/12 03:21:03;;;;;;;22.60;6.37;;;;;;;;;;5110439;28;20288;-75
2022/06/12 03:23:35;;;;;;;21.43;6.60;;;;;;;;;;5111090;28;20287;-75
2022/06/12 03:26:04;;;;;;;25.60;6.23;;;;;;;;;;5111142;28;20205;-75
2022/06/12 03:28:35;;;;;;;18.83;6.17;;;;;;;;;;5123389;27;20255;-75
2022/06/12 03:31:08;;;;;;;21.17;7.20;;;;;;;;;;5131467;27;20247;-75
2022/06/12 03:33:40;;;;;;;23.97;6.63;;;;;;;;;;5131663;27;20280;-75
2022/06/12 03:36:11;;;;;;;19.57;6.70;;;;;;;;;;5131486;27;20698;-75
2022/06/12 03:38:40;;;;;;;19.33;5.93;;;;;;;;;;5131608;27;20282;-75
2022/06/12 03:41:13;;;;;;;23.23;6.40;;;;;;;;;;5131590;27;20230;-75
2022/06/12 03:43:42;;;;;;;18.73;6.07;;;;;;;;;;5130880;27;20208;-74
2022/06/12 03:46:14;;;;;;;24.47;6.20;;;;;;;;;;5119437;27;20282;-75
2022/06/12 03:48:48;;;;;;;23.37;6.87;;;;;;;;;;5110983;27;20312;-75
2022/06/12 03:51:18;;;;;;;21.53;6.67;;;;;;;;;;5110738;28;20290;-75
2022/06/12 03:53:47;;;;;;;27.63;7.10;;;;;;;;;;5110824;28;20275;-75
2022/06/12 03:59:07;;;;;;;23.47;6.80;;;;;;;;;;5109693;28;20254;-75
2022/06/12 04:01:34;;;;;;;21.20;6.67;;;;;;;;;;5120593;28;20277;-74
2022/06/12 04:04:05;;;;;;;23.73;7.97;;;;;;;;;;5114963;28;20198;-75
2022/06/12 04:06:33;;;;;;;22.57;7.53;;;;;;;;;;5124548;27;20258;-75
2022/06/12 04:09:04;;;;;;;30.40;8.30;;;;;;;;;;5135170;27;20490;-75
2022/06/12 04:11:32;;;;;;;29.77;8.40;;;;;;;;;;5135565;27;20226;-75
2022/06/12 04:14:01;;;;;;;26.13;8.90;;;;;;;;;;5135192;27;20615;-75
2022/06/12 04:16:30;;;;;;;27.27;10.13;;;;;;;;;;5130219;27;20231;-74
2022/06/12 04:18:58;;;;;;;36.20;10.30;;;;;;;;;;5113997;28;20266;-75
2022/06/12 04:21:32;;;;;;;27.10;9.37;;;;;;;;;;5114598;28;20885;-74
2022/06/12 04:24:03;;;;;;;23.27;9.77;;;;;;;;;;5114785;28;20203;-74
2022/06/12 04:26:33;;;;;;;33.07;10.70;;;;;;;;;;5114940;28;20231;-74
2022/06/12 04:29:01;;;;;;;31.40;11.10;;;;;;;;;;5114554;28;20225;-74
2022/06/12 04:31:29;;;;;;;32.93;11.37;;;;;;;;;;5101524;27;20283;-75
2022/06/12 04:34:13;;;;;;;32.93;11.63;;;;;;;;;;5126789;27;20210;-74
2022/06/12 04:36:43;;;;;;;34.87;11.63;;;;;;;;;;5116301;27;20281;-74
2022/06/12 04:39:12;;;;;;;34.40;12.60;;;;;;;;;;5114331;28;20207;-74
2022/06/12 04:41:39;;;;;;;37.70;13.63;;;;;;;;;;5124132;27;20306;-75
2022/06/12 04:44:07;;;;;;;38.50;12.37;;;;;;;;;;5134708;27;20307;-74
2022/06/12 04:46:35;;;;;;;33.57;11.90;;;;;;;;;;5134893;27;20284;-74
2022/06/12 04:49:02;;;;;;;31.73;11.23;;;;;;;;;;5128930;27;20213;-75
2022/06/12 04:51:30;;;;;;;32.70;11.60;;;;;;;;;;5113930;28;20729;-74
2022/06/12 04:53:59;;;;;;;31.73;11.27;;;;;;;;;;5113979;28;20243;-74
2022/06/12 04:56:28;;;;;;;37.07;11.93;;;;;;;;;;5117899;27;20296;-75
2022/06/12 04:58:55;;;;;;;27.47;11.30;;;;;;;;;;5133951;27;20232;-74
2022/06/12 05:01:23;;;;;;;30.93;11.17;;;;;;;;;;5133909;27;20238;-74
2022/06/12 05:03:50;;;;;;;32.30;11.07;;;;;;;;;;5115715;27;20248;-74
2022/06/12 05:06:18;;;;;;;30.93;12.37;;;;;;;;;;5117236;27;20194;-74
2022/06/12 05:08:46;;;;;;;40.07;11.63;;;;;;;;;;5113843;28;20313;-75
2022/06/12 05:11:15;;;;;;;30.17;10.83;;;;;;;;;;5113779;28;20262;-75
2022/06/12 05:13:43;;;;;;;27.83;11.00;;;;;;;;;;5113689;28;20229;-74
2022/06/12 05:16:13;;;;;;;28.00;10.97;;;;;;;;;;5113835;28;20244;-74
2022/06/12 05:18:40;;;;;;;24.20;10.53;;;;;;;;;;5125584;27;20224;-74
2022/06/12 05:21:08;;;;;;;26.47;10.87;;;;;;;;;;5129744;27;20284;-74
2022/06/12 05:23:35;;;;;;;29.53;10.50;;;;;;;;;;5129305;27;20196;-75
2022/06/12 05:26:02;;;;;;;21.77;9.77;;;;;;;;;;5132452;27;20253;-74
2022/06/12 05:28:31;;;;;;;21.97;10.00;;;;;;;;;;5133402;27;20219;-74
2022/06/12 05:30:58;;;;;;;26.20;10.93;;;;;;;;;;5118083;27;20284;-74
2022/06/12 05:33:25;;;;;;;24.00;10.60;;;;;;;;;;5114792;27;20664;-74
2022/06/12 05:35:52;;;;;;;27.97;10.67;;;;;;;;;;5133974;27;20299;-74
2022/06/12 05:38:20;;;;;;;27.93;11.03;;;;;;;;;;5133967;27;20273;-75
2022/06/12 05:40:47;;;;;;;24.80;10.57;;;;;;;;;;5132584;27;20300;-74
2022/06/12 05:43:14;;;;;;;25.43;10.60;;;;;;;;;;5127725;27;20229;-74
2022/06/12 05:45:42;;;;;;;20.50;9.93;;;;;;;;;;5125427;27;20308;-74
2022/06/12 05:48:11;;;;;;;17.73;8.43;;;;;;;;;;5113045;28;20264;-75
2022/06/12 05:50:45;;;;;;;16.47;8.40;;;;;;;;;;5112778;28;20280;-75
2022/06/12 05:53:12;;;;;;;13.20;6.70;;;;;;;;;;5113254;28;20213;-75
2022/06/12 05:55:40;;;;;;;12.33;6.47;;;;;;;;;;5112306;28;20673;-74
2022/06/12 05:58:07;;;;;;;11.00;5.60;;;;;;;;;;5112405;28;20284;-74
2022/06/12 06:00:34;;;;;;;9.87;5.50;;;;;;;;;;5112191;28;20292;-74
2022/06/12 06:03:03;;;;;;;12.83;5.27;;;;;;;;;;5120623;27;20296;-74
2022/06/12 06:05:30;;;;;;;12.00;5.47;;;;;;;;;;5112480;28;20240;-75
2022/06/12 06:07:58;;;;;;;11.95;5.60;;;;;;;;;;5112442;28;20286;-75
2022/06/12 06:10:26;;;;;;;10.63;4.88;;;;;;;;;;5112680;28;20251;-75
2022/06/12 06:12:54;;;;;;;12.38;4.75;;;;;;;;;;5129739;27;20764;-75
2022/06/12 06:15:22;;;;;;;12.55;4.50;;;;;;;;;;5128616;27;20277;-75
2022/06/12 06:17:49;;;;;;;10.30;5.00;;;;;;;;;;5112202;28;20320;-76
2022/06/12 06:20:21;;;;;;;9.60;4.35;;;;;;;;;;5112701;28;20274;-75
2022/06/12 06:22:48;;;;;;;12.45;4.63;;;;;;;;;;5112440;28;20194;-75
2022/06/12 06:25:16;;;;;;;10.68;4.60;;;;;;;;;;5111958;28;20280;-75
2022/06/12 06:27:43;;;;;;;9.93;4.35;;;;;;;;;;5120288;27;20279;-75
2022/06/12 06:30:11;;;;;;;10.90;3.88;;;;;;;;;;5131920;27;20308;-75
2022/06/12 06:32:38;;;;;;;9.23;4.25;;;;;;;;;;5132163;27;20232;-75
2022/06/12 06:35:06;;;;;;;11.45;4.30;;;;;;;;;;5132110;27;20242;-75
2022/06/12 06:37:35;;;;;;;10.45;4.63;;;;;;;;;;5132052;27;20661;-75
2022/06/12 06:40:02;;;;;;;10.15;3.80;;;;;;;;;;5132004;27;20200;-75
2022/06/12 06:42:29;;;;;;;9.73;3.78;;;;;;;;;;5132260;27;20231;-75
2022/06/12 06:47:42;;;;;;;13.50;4.43;;;;;;;;;;5131182;27;20310;-75
2022/06/12 06:50:10;;;;;;;9.10;3.75;;;;;;;;;;5117879;27;20282;-75
2022/06/12 06:52:39;;;;;;;9.60;3.58;;;;;;;;;;5111965;28;20239;-75
2022/06/12 06:55:07;;;;;;;11.93;3.53;;;;;;;;;;5111619;28;20629;-75
2022/06/12 06:57:36;;;;;;;10.52;3.42;;;;;;;;;;5111769;28;20288;-75
2022/06/12 07:00:05;;;;;;;11.38;3.40;;;;;;;;;;5111440;28;20198;-75
2022/06/12 07:02:32;;;;;;;9.35;3.45;;;;;;;;;;5111648;28;20509;-75
2022/06/12 07:04:59;;;;;;;8.38;3.28;;;;;;;;;;5112056;28;20305;-76
2022/06/12 07:07:27;;;;;;;8.38;2.97;;;;;;;;;;5111381;28;20249;-75
2022/06/12 07:09:55;;;;;;;11.52;3.25;;;;;;;;;;5123130;27;20216;-75
2022/06/12 07:12:22;;;;;;;7.93;2.92;;;;;;;;;;5121626;27;20280;-75
2022/06/12 07:14:50;;;;;;;7.78;2.80;;;;;;;;;;5115138;27;20290;-75
2022/06/12 07:17:17;;;;;;;10.70;3.05;;;;;;;;;;5131474;27;20256;-75
2022/06/12 07:19:44;;;;;;;10.40;3.30;;;;;;;;;;5126662;27;20391;-75
2022/06/12 07:22:11;;;;;;;10.23;3.20;;;;;;;;;;5110809;28;20205;-75
2022/06/12 07:24:39;;;;;;;7.60;2.70;;;;;;;;;;5124281;27;20891;-75
2022/06/12 07:27:08;;;;;;;6.78;3.20;;;;;;;;;;5131614;27;20288;-75
2022/06/12 07:29:35;;;;;;;8.88;3.00;;;;;;;;;;5131686;27;20311;-75
2022/06/12 07:32:03;;;;;;;7.95;3.25;;;;;;;;;;5131727;27;20762;-75
2022/06/12 07:34:31;;;;;;;9.15;2.80;;;;;;;;;;5119739;27;20564;-75
2022/06/12 07:36:59;;;;;;;6.30;3.15;;;;;;;;;;5110895;28;20270;-76
2022/06/12 07:39:27;;;;;;;7.10;2.78;;;;;;;;;;5110648;28;20213;-76
2022/06/12 07:41:54;;;;;;;8.45;2.97;;;;;;;;;;5111467;27;20229;-75
2022/06/12 07:44:24;;;;;;;9.13;3.03;;;;;;;;;;5124115;27;20723;-76
2022/06/12 07:46:52;;;;;;;6.85;2.60;;;;;;;;;;5111020;28;20292;-76
2022/06/12 07:49:20;;;;;;;7.70;2.63;;;;;;;;;;5120181;27;20205;-76
2022/06/12 07:51:48;;;;;;;5.82;2.40;;;;;;;;;;5119856;27;20304;-75
2022/06/12 07:54:15;;;;;;;9.00;3.08;;;;;;;;;;5109915;28;20201;-76
2022/06/12 07:56:43;;;;;;;9.00;2.85;;;;;;;;;;5109294;28;20708;-75
2022/06/12 07:59:10;;;;;;;8.00;2.83;;;;;;;;;;5110314;28;20217;-76
2022/06/12 08:01:39;;;;;;;7.25;2.60;;;;;;;;;;5106748;28;20211;-76
2022/06/12 08:04:07;;;;;;;7.50;2.40;;;;;;;;;;5111895;28;20308;-77
2022/06/12 08:06:34;;;;;;;7.88;2.17;;;;;;;;;;5109410;28;20217;-76
2022/06/12 08:09:02;;;;;;;5.10;2.60;;;;;;;;;;5109663;28;20304;-76
2022/06/12 08:11:29;;;;;;;7.47;2.63;;;;;;;;;;5111188;28;20229;-76
2022/06/12 08:13:56;;;;;;;6.97;2.33;;;;;;;;;;5109810;28;20204;-76
2022/06/12 08:16:24;;;;;;;7.40;2.72;;;;;;;;;;5111352;28;20759;-76
2022/06/12 08:18:52;;;;;;;7.07;2.55;;;;;;;;;;5110928;28;20193;-76
2022/06/12 08:21:20;;;;;;;7.90;2.67;;;;;;;;;;5129210;27;20224;-76
2022/06/12 08:23:49;;;;;;;8.98;2.80;;;;;;;;;;5110477;28;20201;-76
2022/06/12 08:26:19;;;;;;;6.40;2.10;;;;;;;;;;5109956;28;20281;-76
2022/06/12 08:28:48;;;;;;;5.85;2.10;;;;;;;;;;5089320;28;20202;-76
2022/06/12 08:31:16;;;;;;;5.88;2.67;;;;;;;;;;5089635;28;20198;-75
2022/06/12 08:33:44;;;;;;;6.07;2.35;;;;;;;;;;5099385;28;20204;-75
2022/06/12 08:36:14;;;;;;;5.80;1.95;;;;;;;;;;5121293;27;20288;-75
2022/06/12 08:38:42;;;;;;;8.73;2.40;;;;;;;;;;5110029;28;20233;-76
2022/06/12 08:41:12;;;;;;;6.70;2.38;;;;;;;;;;5109333;28;20284;-76
2022/06/12 08:43:43;;;;;;;7.25;2.30;;;;;;;;;;5110389;28;20701;-75
2022/06/12 08:46:15;;;;;;;4.88;2.17;;;;;;;;;;5115289;28;20229;-76
2022/06/12 08:48:48;;;;;;;8.30;2.28;;;;;;;;;;5107220;28;20200;-75
2022/06/12 08:51:22;;;;;;;5.65;2.20;;;;;;;;;;5118248;28;20201;-75
2022/06/12 08:53:52;;;;;;;3.95;1.90;;;;;;;;;;5118930;27;20233;-76
2022/06/12 08:56:21;;;;;;;5.70;2.00;;;;;;;;;;5126288;27;20200;-75
2022/06/12 08:58:51;;;;;;;7.68;2.20;;;;;;;;;;5113856;28;20206;-75
2022/06/12 09:01:18;;;;;;;7.13;2.03;;;;;;;;;;5122647;27;20759;-76
2022/06/12 09:03:47;;;;;;;6.13;1.88;;;;;;;;;;5114414;27;20245;-75
2022/06/12 09:06:19;;;;;;;6.75;2.00;;;;;;;;;;5113838;27;20198;-75
2022/06/12 09:08:49;;;;;;;6.18;2.40;;;;;;;;;;5109514;27;20193;-77
2022/06/12 09:11:19;;;;;;;5.72;1.98;;;;;;;;;;5134379;27;20197;-77
2022/06/12 09:13:52;;;;;;;5.97;2.13;;;;;;;;;;5132792;27;20283;-77
2022/06/12 09:16:23;;;;;;;5.05;2.03;;;;;;;;;;5106867;27;20312;-77
2022/06/12 09:18:53;;;;;;;8.82;2.42;;;;;;;;;;5130937;27;20224;-77
2022/06/12 09:21:22;;;;;;;5.57;1.90;;;;;;;;;;5133727;27;20228;-77
2022/06/12 09:23:59;;;;;;;4.75;1.90;;;;;;;;;;5133445;27;20284;-77
2022/06/12 09:26:32;;;;;;;5.32;1.88;;;;;;;;;;5133307;27;20201;-77
2022/06/12 09:29:04;;;;;;;6.22;2.38;;;;;;;;;;5131206;27;20634;-77
2022/06/12 09:31:34;;;;;;;6.03;2.42;;;;;;;;;;5111629;27;20232;-77
2022/06/12 09:34:06;;;;;;;7.78;2.00;;;;;;;;;;5112744;28;20205;-77
2022/06/12 09:36:37;;;;;;;7.28;2.38;;;;;;;;;;5112938;28;20247;-77
2022/06/12 09:39:08;;;;;;;5.50;2.22;;;;;;;;;;5092715;28;20615;-77
2022/06/12 09:41:41;;;;;;;4.53;2.22;;;;;;;;;;5110225;28;20202;-77
2022/06/12 09:44:13;;;;;;;3.90;1.70;;;;;;;;;;5112710;28;20249;-77
2022/06/12 09:46:44;;;;;;;5.40;1.90;;;;;;;;;;5125398;27;20283;-77
2022/06/12 09:49:20;;;;;;;5.43;2.08;;;;;;;;;;5118370;27;20305;-77
2022/06/12 09:51:53;;;;;;;5.65;1.70;;;;;;;;;;5118548;27;20288;-77
2022/06/12 09:54:40;;;;;;;5.32;1.77;;;;;;;;;;5127809;27;20200;-77
2022/06/12 09:57:12;;;;;;;5.22;1.70;;;;;;;;;;5133433;27;20236;-77
2022/06/12 09:59:43;;;;;;;5.57;2.10;;;;;;;;;;5133108;27;20197;-77
2022/06/12 10:02:15;;;;;;;5.30;2.00;;;;;;;;;;5127982;27;20602;-77
2022/06/12 10:04:45;;;;;;;5.82;1.80;;;;;;;;;;5111481;28;20204;-77
2022/06/12 10:07:17;;;;;;;5.00;1.92;;;;;;;;;;5127387;27;20193;-77
2022/06/12 10:09:47;;;;;;;5.07;2.20;;;;;;;;;;5133409;27;20256;-77
2022/06/12 10:12:16;;;;;;;4.53;1.90;;;;;;;;;;5120640;27;20283;-77
2022/06/12 10:14:45;;;;;;;4.22;1.98;;;;;;;;;;5124048;27;21098;-77
2022/06/12 10:17:15;;;;;;;4.10;1.67;;;;;;;;;;5129376;27;20307;-77
2022/06/12 10:19:46;;;;;;;4.80;2.13;;;;;;;;;;5131649;27;20272;-77
2022/06/12 10:22:16;;;;;;;5.28;1.95;;;;;;;;;;5112225;27;20717;-77
2022/06/12 10:24:43;;;;;;;6.10;2.05;;;;;;;;;;5125364;27;20283;-77
2022/06/12 10:27:13;;;;;;;4.07;2.08;;;;;;;;;;5132759;27;20280;-77
2022/06/12 10:29:43;;;;;;;4.65;1.90;;;;;;;;;;5121736;27;20727;-77
2022/06/12 10:32:14;;;;;;;5.70;1.75;;;;;;;;;;5122840;27;20280;-77
2022/06/12 10:34:41;;;;;;;6.40;2.38;;;;;;;;;;5112387;28;20304;-77
2022/06/12 10:37:13;;;;;;;6.05;1.95;;;;;;;;;;5111891;28;20237;-77
2022/06/12 10:39:41;;;;;;;4.90;2.00;;;;;;;;;;5106673;27;20614;-77
2022/06/12 10:42:25;;;;;;;7.95;2.15;;;;;;;;;;5112070;28;20591;-77
2022/06/12 10:44:57;;;;;;;3.53;1.77;;;;;;;;;;5111213;28;20297;-77
2022/06/12 10:47:25;;;;;;;4.18;1.60;;;;;;;;;;5114200;27;20769;-77
2022/06/12 10:50:03;;;;;;;5.70;1.77;;;;;;;;;;5106882;28;20297;-77
2022/06/12 10:52:30;;;;;;;5.93;2.03;;;;;;;;;;5130953;27;20197;-77
2022/06/12 10:54:57;;;;;;;3.80;1.90;;;;;;;;;;5127758;27;20713;-77
2022/06/12 10:57:36;;;;;;;6.25;2.15;;;;;;;;;;5111485;28;20543;-77
2022/06/12 11:00:06;;;;;;;5.18;2.10;;;;;;;;;;5112187;27;20289;-77
2022/06/12 11:02:42;;;;;;;4.78;2.10;;;;;;;;;;5118819;27;20212;-77
2022/06/12 11:05:14;;;;;;;4.43;2.22;;;;;;;;;;5109473;27;20288;-77
2022/06/12 11:07:46;;;;;;;6.72;2.47;;;;;;;;;;5114126;27;20225;-77
2022/06/12 11:10:19;;;;;;;10.07;5.28;;;;;;;;;;5117429;27;20281;-77
2022/06/12 11:12:56;;;;;;;6.50;3.22;;;;;;;;;;5107576;27;20276;-77
2022/06/12 11:15:33;;;;;;;8.35;4.38;;;;;;;;;;5110816;27;20285;-77
2022/06/12 11:18:03;;;;;;;5.30;2.85;;;;;;;;;;5106458;27;20312;-77
2022/06/12 11:20:34;;;;;;;7.35;2.42;;;;;;;;;;5111615;28;20844;-77
2022/06/12 11:23:08;;;;;;;5.32;3.20;;;;;;;;;;5110729;27;20225;-77
2022/06/12 11:25:42;;;;;;;6.03;4.95;;;;;;;;;;5106383;28;20211;-77
2022/06/12 11:28:16;;;;;;;6.10;2.40;;;;;;;;;;5108312;28;20221;-77
2022/06/12 11:30:51;;;;;;;3.92;2.03;;;;;;;;;;5107201;28;20675;-77
2022/06/12 11:33:36;;;;;;;7.47;2.55;;;;;;;;;;5105045;27;20275;-77
2022/06/12 11:36:08;;;;;;;5.15;2.22;;;;;;;;;;5119319;27;20281;-77
2022/06/12 11:38:44;;;;;;;4.80;2.00;;;;;;;;;;5125607;27;20655;-77
2022/06/12 11:41:17;;;;;;;3.75;1.92;;;;;;;;;;5111673;27;20673;-77
2022/06/12 11:43:46;;;;;;;5.47;2.25;;;;;;;;;;5124077;27;20240;-77
2022/06/12 11:46:20;;;;;;;5.10;2.10;;;;;;;;;;5125485;27;20637;-77
2022/06/12 11:49:07;;;;;;;5.03;3.17;;;;;;;;;;5124829;27;20201;-77
2022/06/12 11:51:39;;;;;;;7.72;6.47;;;;;;;;;;5091245;28;20218;-77
2022/06/12 11:54:16;;;;;;;4.18;2.88;;;;;;;;;;5096876;27;20292;-77
2022/06/12 11:56:46;;;;;;;5.38;2.10;;;;;;;;;;5110496;27;20219;-77
2022/06/12 11:59:19;;;;;;;6.47;2.50;;;;;;;;;;5119463;27;20194;-77
2022/06/12 12:01:53;;;;;;;4.28;2.15;;;;;;;;;;5113912;27;20229;-77
2022/06/12 12:04:29;;;;;;;4.63;2.70;;;;;;;;;;5120001;27;20280;-77
2022/06/12 12:07:08;;;;;;;4.43;1.90;;;;;;;;;;5120768;28;20200;-77
2022/06/12 12:09:42;;;;;;;4.68;1.80;;;;;;;;;;5129618;27;20296;-76
2022/06/12 12:12:11;;;;;;;7.22;2.58;;;;;;;;;;5116976;28;20248;-77
2022/06/12 12:14:40;;;;;;;6.43;2.08;;;;;;;;;;5130800;27;20232;-77
2022/06/12 12:17:10;;;;;;;3.75;1.75;;;;;;;;;;5120576;27;20276;-77
2022/06/12 12:19:45;;;;;;;6.22;2.25;;;;;;;;;;5124353;28;20288;-77
2022/06/12 12:22:16;;;;;;;5.40;2.30;;;;;;;;;;5130834;27;20190;-77
2022/06/12 12:24:46;;;;;;;3.15;1.52;;;;;;;;;;5126611;27;20236;-77
2022/06/12 12:27:16;;;;;;;4.43;2.20;;;;;;;;;;5118299;27;20273;-78
2022/06/12 12:29:43;;;;;;;4.68;2.40;;;;;;;;;;5123492;27;20240;-77
2022/06/12 12:32:12;;;;;;;5.53;2.20;;;;;;;;;;5125882;27;20746;-77
2022/06/12 12:34:40;;;;;;;4.32;2.28;;;;;;;;;;5125960;27;20229;-78
2022/06/12 12:43:03;;;;;;;3.38;1.75;;;;;;;;;;5082007;28;20288;-77
2022/06/12 12:45:32;;;;;;;6.28;1.90;;;;;;;;;;5086498;28;20644;-77
2022/06/12 12:48:01;;;;;;;3.63;1.60;;;;;;;;;;5087314;28;20255;-78
2022/06/12 12:50:29;;;;;;;4.13;2.22;;;;;;;;;;5086242;28;20222;-77
2022/06/12 12:52:58;;;;;;;5.35;1.73;;;;;;;;;;5073194;28;20203;-78
2022/06/12 12:55:27;;;;;;;5.13;1.88;;;;;;;;;;5080180;28;20550;-78
2022/06/12 12:57:56;;;;;;;4.65;1.88;;;;;;;;;;5076270;28;20235;-77
2022/06/12 13:00:31;;;;;;;4.95;1.88;;;;;;;;;;5076397;28;20631;-77
2022/06/12 13:03:02;;;;;;;4.80;1.90;;;;;;;;;;5074451;28;20606;-77
2022/06/12 13:05:38;;;;;;;3.38;1.90;;;;;;;;;;5083840;28;20285;-77
2022/06/12 13:08:15;;;;;;;4.85;1.70;;;;;;;;;;5083788;28;20281;-77
2022/06/12 13:10:49;;;;;;;5.15;1.85;;;;;;;;;;5070248;28;20417;-77
2022/06/12 13:13:39;;;;;;;4.70;1.80;;;;;;;;;;5070708;28;20234;-77
2022/06/12 13:16:10;;;;;;;6.03;1.65;;;;;;;;;;5072658;28;20242;-77
2022/06/12 13:18:48;;;;;;;4.43;1.80;;;;;;;;;;5093461;28;20614;-77
2022/06/12 13:21:21;;;;;;;4.20;1.83;;;;;;;;;;5112476;27;20195;-77
2022/06/12 13:24:01;;;;;;;6.20;2.35;;;;;;;;;;5121519;27;20941;-78
2022/06/12 13:26:28;;;;;;;4.50;1.92;;;;;;;;;;5127656;27;20276;-77
2022/06/12 13:28:57;;;;;;;4.75;2.05;;;;;;;;;;5128728;27;20232;-78
2022/06/12 13:31:24;;;;;;;5.35;1.95;;;;;;;;;;5130531;27;20558;-77
2022/06/12 13:33:54;;;;;;;5.00;2.03;;;;;;;;;;5116615;27;20218;-77
2022/06/12 13:36:25;;;;;;;5.53;1.80;;;;;;;;;;5114720;27;20201;-78
2022/06/12 13:38:55;;;;;;;4.03;1.83;;;;;;;;;;5133452;27;20193;-78
2022/06/12 13:41:25;;;;;;;7.25;2.10;;;;;;;;;;5117317;27;20280;-78
2022/06/12 13:43:53;;;;;;;6.32;1.77;;;;;;;;;;5112356;27;20247;-78
2022/06/12 13:46:22;;;;;;;2.92;1.55;;;;;;;;;;5121524;27;20229;-78
2022/06/12 13:48:50;;;;;;;5.10;1.90;;;;;;;;;;5116325;27;20281;-78
2022/06/12 13:51:25;;;;;;;7.97;2.28;;;;;;;;;;5113022;28;20257;-77
2022/06/12 13:54:00;;;;;;;4.68;2.10;;;;;;;;;;5108708;27;20229;-77
2022/06/12 13:56:28;;;;;;;5.55;2.08;;;;;;;;;;5118917;27;20197;-78
2022/06/12 13:58:56;;;;;;;4.63;1.98;;;;;;;;;;5121069;27;20276;-77
2022/06/12 14:01:24;;;;;;;5.70;2.35;;;;;;;;;;5123941;27;20185;-78
2022/06/12 14:03:53;;;;;;;6.22;2.08;;;;;;;;;;5125813;27;20680;-77
2022/06/12 14:06:24;;;;;;;7.68;2.33;;;;;;;;;;5123780;27;20280;-77
2022/06/12 14:08:54;;;;;;;5.05;2.08;;;;;;;;;;5117560;27;20235;-78
2022/06/12 14:11:24;;;;;;;5.03;2.47;;;;;;;;;;5112673;28;20253;-78
2022/06/12 14:13:51;;;;;;;8.50;2.25;;;;;;;;;;5129944;27;20270;-78
2022/06/12 14:16:20;;;;;;;6.95;2.00;;;;;;;;;;5115271;27;20232;-77
2022/06/12 14:18:55;;;;;;;6.18;2.08;;;;;;;;;;5127580;27;20674;-77
2022/06/12 14:21:26;;;;;;;6.55;2.08;;;;;;;;;;5115289;27;20381;-78
2022/06/12 14:23:54;;;;;;;7.30;2.47;;;;;;;;;;5117534;27;20724;-78
2022/06/12 14:26:27;;;;;;;5.82;1.95;;;;;;;;;;5121477;27;20194;-78
2022/06/12 14:28:55;;;;;;;5.72;2.30;;;;;;;;;;5117869;27;20200;-77
2022/06/12 14:31:25;;;;;;;4.68;2.05;;;;;;;;;;5106445;27;20304;-77
2022/06/12 14:33:57;;;;;;;7.90;2.47;;;;;;;;;;5117676;27;20208;-77
2022/06/12 14:36:30;;;;;;;4.82;2.13;;;;;;;;;;5114757;27;20277;-77
2022/06/12 14:38:58;;;;;;;5.18;2.22;;;;;;;;;;5118037;27;20229;-78
2022/06/12 14:41:26;;;;;;;6.40;2.25;;;;;;;;;;5118271;27;20740;-78
2022/06/12 14:43:54;;;;;;;6.78;2.35;;;;;;;;;;5120359;27;20273;-78
2022/06/12 14:46:23;;;;;;;6.03;2.03;;;;;;;;;;5119431;27;20255;-78
2022/06/12 14:48:50;;;;;;;5.97;2.00;;;;;;;;;;5124036;27;20193;-78
2022/06/12 14:51:19;;;;;;;4.68;1.80;;;;;;;;;;5131795;27;20616;-77
2022/06/12 14:53:48;;;;;;;5.03;1.80;;;;;;;;;;5131994;27;20254;-77
2022/06/12 14:56:18;;;;;;;5.47;2.15;;;;;;;;;;5098896;27;20208;-77
2022/06/12 14:58:45;;;;;;;7.03;1.80;;;;;;;;;;5120869;27;20252;-77
2022/06/12 15:01:13;;;;;;;6.95;2.10;;;;;;;;;;5118540;27;20269;-77
2022/06/12 15:03:41;;;;;;;5.32;1.90;;;;;;;;;;5116106;27;20237;-77
2022/06/12 15:06:08;;;;;;;5.30;1.70;;;;;;;;;;5129290;27;20288;-77